createdAt,value
2019-04-04T00:02:31.932Z,34.20
2019-04-04T00:05:09.672Z,35.43
2019-04-04T00:07:47.223Z,27.43
2019-04-04T00:10:24.752Z,23.90
2019-04-04T00:13:02.285Z,19.83
2019-04-04T00:15:39.750Z,18.13
2019-04-04T00:18:17.223Z,18.70
2019-04-04T00:20:54.709Z,15.00
2019-04-04T00:23:32.179Z,16.40
2019-04-04T00:26:10.771Z,15.47
2019-04-04T00:28:47.140Z,11.83
2019-04-04T00:31:24.629Z,12.67
2019-04-04T00:34:02.126Z,10.17
2019-04-04T00:36:39.597Z,12.50
2019-04-04T00:39:17.040Z,10.70
2019-04-04T00:41:54.543Z,11.50
2019-04-04T00:44:32.009Z,12.53
2019-04-04T00:47:09.502Z,15.13
2019-04-04T00:49:46.961Z,13.47
2019-04-04T00:52:24.449Z,14.10
2019-04-04T00:55:01.920Z,15.67
2019-04-04T00:57:39.458Z,12.07
2019-04-04T01:00:16.929Z,12.47
2019-04-04T01:02:54.449Z,11.13
2019-04-04T01:05:32.563Z,13.03
2019-04-04T01:08:09.411Z,10.10
2019-04-04T01:10:49.532Z,12.37
2019-04-04T01:13:27.360Z,10.77
2019-04-04T01:16:02.862Z,11.13
2019-04-04T01:18:39.309Z,9.90
2019-04-04T01:21:16.808Z,9.90
2019-04-04T01:23:54.301Z,10.87
2019-04-04T01:26:34.848Z,8.90
2019-04-04T01:29:10.930Z,10.00
2019-04-04T01:31:46.755Z,10.77
2019-04-04T01:34:24.269Z,8.73
2019-04-04T01:37:01.769Z,9.37
2019-04-04T01:39:42.508Z,9.67
2019-04-04T01:42:20.004Z,9.10
2019-04-04T01:44:57.460Z,9.97
2019-04-04T01:47:34.958Z,9.03
2019-04-04T01:50:12.445Z,9.20
2019-04-04T01:52:49.930Z,10.33
2019-04-04T01:55:27.410Z,9.30
2019-04-04T01:58:04.886Z,9.43
2019-04-04T02:00:43.980Z,10.30
2019-04-04T02:03:22.421Z,12.23
2019-04-04T02:05:58.173Z,10.07
2019-04-04T02:08:34.786Z,10.40
2019-04-04T02:11:12.246Z,11.83
2019-04-04T02:13:49.735Z,11.93
2019-04-04T02:16:27.215Z,12.27
2019-04-04T02:19:04.705Z,11.73
2019-04-04T02:21:42.245Z,14.53
2019-04-04T02:24:20.164Z,11.90
2019-04-04T02:26:57.695Z,12.30
2019-04-04T02:29:35.210Z,13.97
2019-04-04T02:32:15.196Z,13.27
2019-04-04T02:34:52.708Z,16.07
2019-04-04T02:37:30.270Z,16.70
2019-04-04T02:40:09.824Z,17.97
2019-04-04T02:42:45.968Z,19.20
2019-04-04T02:45:23.475Z,18.27
2019-04-04T02:48:01.004Z,16.23
2019-04-04T02:50:38.509Z,19.00
2019-04-04T02:53:19.390Z,17.43
2019-04-04T02:55:53.593Z,18.57
2019-04-04T02:58:31.136Z,16.23
2019-04-04T03:01:08.684Z,17.27
2019-04-04T03:03:46.212Z,18.13
2019-04-04T03:06:24.420Z,16.53
2019-04-04T03:09:01.310Z,17.53
2019-04-04T03:11:38.797Z,15.80
2019-04-04T03:14:16.324Z,15.33
2019-04-04T03:16:56.394Z,15.57
2019-04-04T03:19:31.333Z,16.13
2019-04-04T03:22:08.898Z,18.03
2019-04-04T03:24:46.417Z,17.93
2019-04-04T03:27:26.854Z,15.77
2019-04-04T03:30:01.448Z,14.30
2019-04-04T03:32:39.000Z,15.37
2019-04-04T03:35:16.469Z,15.63
2019-04-04T03:37:54.011Z,13.73
2019-04-04T03:40:31.529Z,15.17
2019-04-04T03:43:09.071Z,14.97
2019-04-04T03:45:46.590Z,14.10
2019-04-04T03:48:24.125Z,14.27
2019-04-04T03:51:04.600Z,18.20
2019-04-04T03:53:40.023Z,17.37
2019-04-04T03:56:17.548Z,15.23
2019-04-04T03:58:55.095Z,13.13
2019-04-04T04:01:32.620Z,15.27
2019-04-04T04:04:10.335Z,19.13
2019-04-04T04:06:47.852Z,19.23
2019-04-04T04:09:26.364Z,19.47
2019-04-04T04:12:02.967Z,21.80
2019-04-04T04:14:40.516Z,18.43
2019-04-04T04:17:18.051Z,19.50
2019-04-04T04:19:55.608Z,19.97
2019-04-04T04:22:33.150Z,18.37
2019-04-04T04:25:10.677Z,17.47
2019-04-04T04:27:48.694Z,16.47
2019-04-04T04:30:25.750Z,14.70
2019-04-04T04:33:03.337Z,18.47
2019-04-04T04:35:42.190Z,20.13
2019-04-04T04:38:18.468Z,17.80
2019-04-04T04:40:56.186Z,18.60
2019-04-04T04:43:33.812Z,16.80
2019-04-04T04:46:17.999Z,18.03
2019-04-04T04:48:56.794Z,19.67
2019-04-04T04:51:35.158Z,23.23
2019-04-04T04:54:13.879Z,22.90
2019-04-04T04:56:52.408Z,22.07
2019-04-04T04:59:31.401Z,20.37
2019-04-04T05:02:10.006Z,23.87
2019-04-04T05:04:48.600Z,18.20
2019-04-04T05:07:27.249Z,19.50
2019-04-04T05:10:06.426Z,21.67
2019-04-04T05:12:44.737Z,20.33
2019-04-04T05:15:23.086Z,20.33
2019-04-04T05:18:01.302Z,25.90
2019-04-04T05:20:39.613Z,21.67
2019-04-04T05:23:18.000Z,20.67
2019-04-04T05:25:55.536Z,21.47
2019-04-04T05:28:33.108Z,19.43
2019-04-04T05:31:10.625Z,21.90
2019-04-04T05:33:48.207Z,25.13
2019-04-04T05:36:25.790Z,18.97
2019-04-04T05:39:03.450Z,16.90
2019-04-04T05:41:40.997Z,21.00
2019-04-04T05:44:18.544Z,16.57
2019-04-04T05:46:56.085Z,13.77
2019-04-04T05:49:33.705Z,11.67
2019-04-04T05:52:11.276Z,12.63
2019-04-04T05:54:48.893Z,13.60
2019-04-04T05:57:26.532Z,14.93
2019-04-04T06:00:04.138Z,13.03
2019-04-04T06:02:43.180Z,14.40
2019-04-04T06:05:19.260Z,14.00
2019-04-04T06:07:56.771Z,15.27
2019-04-04T06:10:34.371Z,11.37
2019-04-04T06:13:11.903Z,12.27
2019-04-04T06:15:49.471Z,15.83
2019-04-04T06:18:27.088Z,15.10
2019-04-04T06:21:04.656Z,19.33
2019-04-04T06:23:42.221Z,16.23
2019-04-04T06:26:19.814Z,18.23
2019-04-04T06:28:57.388Z,16.87
2019-04-04T06:31:34.931Z,16.87
2019-04-04T06:34:12.482Z,19.90
2019-04-04T06:36:50.057Z,14.73
2019-04-04T06:39:27.600Z,16.50
2019-04-04T06:42:05.190Z,14.93
2019-04-04T06:44:43.901Z,17.90
2019-04-04T06:47:20.546Z,17.00
2019-04-04T06:49:58.130Z,17.87
2019-04-04T06:52:35.653Z,16.60
2019-04-04T06:55:13.240Z,20.00
2019-04-04T06:57:51.359Z,18.93
2019-04-04T07:00:28.334Z,15.70
2019-04-04T07:03:05.853Z,19.33
2019-04-04T07:05:43.402Z,19.80
2019-04-04T07:08:20.929Z,20.47
2019-04-04T07:11:02.624Z,18.80
2019-04-04T07:13:42.409Z,18.10
2019-04-04T07:16:13.564Z,18.33
2019-04-04T07:18:51.116Z,17.23
2019-04-04T07:21:28.647Z,19.90
2019-04-04T07:24:06.214Z,19.40
2019-04-04T07:26:45.530Z,20.50
2019-04-04T07:29:22.996Z,23.40
2019-04-04T07:31:58.892Z,20.27
2019-04-04T07:34:36.439Z,22.67
2019-04-04T07:37:13.948Z,24.40
2019-04-04T07:39:51.480Z,26.93
2019-04-04T07:42:29.020Z,27.87
2019-04-04T07:45:06.940Z,27.87
2019-04-04T07:47:46.658Z,27.43
2019-04-04T07:50:22.085Z,26.90
2019-04-04T07:52:59.632Z,26.67
2019-04-04T07:55:37.371Z,26.63
2019-04-04T07:58:14.930Z,26.50
2019-04-04T08:00:52.518Z,25.07
2019-04-04T08:03:30.066Z,24.63
2019-04-04T08:06:07.624Z,23.00
2019-04-04T08:08:45.142Z,24.60
2019-04-04T08:11:22.671Z,27.63
2019-04-04T08:14:00.181Z,24.27
2019-04-04T08:16:37.713Z,27.00
2019-04-04T08:19:15.261Z,25.30
2019-04-04T08:21:52.826Z,27.10
2019-04-04T08:24:30.411Z,26.13
2019-04-04T08:27:08.009Z,26.93
2019-04-04T08:29:45.612Z,31.43
2019-04-04T08:32:23.129Z,32.27
2019-04-04T08:35:00.700Z,39.63
2019-04-04T08:37:38.218Z,34.53
2019-04-04T08:40:15.786Z,38.63
2019-04-04T08:42:53.339Z,34.23
2019-04-04T08:45:30.913Z,39.93
2019-04-04T08:48:08.433Z,42.60
2019-04-04T08:50:45.953Z,45.70
2019-04-04T08:53:23.495Z,46.67
2019-04-04T08:56:01.100Z,48.37
2019-04-04T08:58:38.650Z,63.00
2019-04-04T09:01:16.265Z,64.27
2019-04-04T09:03:53.831Z,55.57
2019-04-04T09:06:31.374Z,48.70
2019-04-04T09:09:09.203Z,48.70
2019-04-04T09:11:46.769Z,52.70
2019-04-04T09:14:24.285Z,52.23
2019-04-04T09:17:01.890Z,58.73
2019-04-04T09:19:39.441Z,54.30
2019-04-04T09:22:16.983Z,55.27
2019-04-04T09:24:54.535Z,58.93
2019-04-04T09:27:32.076Z,54.27
2019-04-04T09:30:09.857Z,57.10
2019-04-04T09:32:47.362Z,59.10
2019-04-04T09:35:24.942Z,56.50
2019-04-04T09:38:02.452Z,54.97
2019-04-04T09:40:40.021Z,48.57
2019-04-04T09:43:17.624Z,49.23
2019-04-04T09:45:55.200Z,48.43
2019-04-04T09:48:32.709Z,50.80
2019-04-04T09:51:10.263Z,50.73
2019-04-04T09:53:53.380Z,51.87
2019-04-04T09:56:25.390Z,51.27
2019-04-04T09:59:02.925Z,52.70
2019-04-04T10:01:40.458Z,57.57
2019-04-04T10:04:17.997Z,53.47
2019-04-04T10:06:55.577Z,51.27
2019-04-04T10:09:33.127Z,47.77
2019-04-04T10:12:10.679Z,57.87
2019-04-04T10:14:48.226Z,57.17
2019-04-04T10:17:25.805Z,51.50
2019-04-04T10:20:17.570Z,54.90
2019-04-04T10:22:55.167Z,52.90
2019-04-04T10:25:32.721Z,51.80
2019-04-04T10:28:10.247Z,50.50
2019-04-04T10:30:47.784Z,50.50
2019-04-04T10:33:25.334Z,48.47
2019-04-04T10:36:02.923Z,50.60
2019-04-04T10:38:40.462Z,55.97
2019-04-04T10:41:18.049Z,59.37
2019-04-04T10:43:55.560Z,54.57
2019-04-04T10:46:33.100Z,49.30
2019-04-04T10:49:10.706Z,47.83
2019-04-04T10:51:48.267Z,51.57
2019-04-04T10:54:25.819Z,47.30
2019-04-04T10:57:03.447Z,47.77
2019-04-04T10:59:40.978Z,47.07
2019-04-04T11:02:18.569Z,41.67
2019-04-04T11:04:56.081Z,44.93
2019-04-04T11:07:33.627Z,41.73
2019-04-04T11:10:11.143Z,43.83
2019-04-04T11:12:48.669Z,45.73
2019-04-04T11:15:26.236Z,43.50
2019-04-04T11:18:03.786Z,44.80
2019-04-04T11:20:41.321Z,47.70
2019-04-04T11:23:18.849Z,37.90
2019-04-04T11:25:56.351Z,41.93
2019-04-04T11:28:33.892Z,36.37
2019-04-04T11:31:11.427Z,40.00
2019-04-04T11:33:48.988Z,38.03
2019-04-04T11:36:26.562Z,36.40
2019-04-04T11:39:04.204Z,36.33
2019-04-04T11:41:41.806Z,38.67
2019-04-04T11:44:19.325Z,36.67
2019-04-04T11:46:56.885Z,34.10
2019-04-04T11:49:34.433Z,37.77
2019-04-04T11:52:11.989Z,34.53
2019-04-04T11:54:58.525Z,34.93
2019-04-04T11:57:36.419Z,33.30
2019-04-04T12:00:16.462Z,36.87
2019-04-04T12:02:54.062Z,31.20
2019-04-04T12:05:31.630Z,32.73
2019-04-04T12:08:09.194Z,36.17
2019-04-04T12:10:46.719Z,36.10
2019-04-04T12:13:24.281Z,33.73
2019-04-04T12:16:01.834Z,32.10
2019-04-04T12:18:39.434Z,28.43
2019-04-04T12:21:16.992Z,34.93
2019-04-04T12:23:54.513Z,33.10
2019-04-04T12:26:32.151Z,33.47
2019-04-04T12:29:09.678Z,31.40
2019-04-04T12:31:47.241Z,33.60
2019-04-04T12:34:24.762Z,33.73
2019-04-04T12:37:02.364Z,33.50
2019-04-04T12:39:39.940Z,33.77
2019-04-04T12:42:17.518Z,32.00
2019-04-04T12:44:56.689Z,34.20
2019-04-04T12:47:34.302Z,33.00
2019-04-04T12:50:11.830Z,34.73
2019-04-04T12:52:49.412Z,31.70
2019-04-04T12:55:26.937Z,31.07
2019-04-04T12:58:04.515Z,33.50
2019-04-04T13:00:42.045Z,31.97
2019-04-04T13:03:22.229Z,34.73
2019-04-04T13:05:57.155Z,34.43
2019-04-04T13:08:34.717Z,33.37
2019-04-04T13:11:12.220Z,35.63
2019-04-04T13:13:49.774Z,37.23
2019-04-04T13:16:27.341Z,33.43
2019-04-04T13:19:04.923Z,33.60
2019-04-04T13:21:42.488Z,33.13
2019-04-04T13:24:20.115Z,31.00
2019-04-04T13:26:57.667Z,31.97
2019-04-04T13:29:35.227Z,34.07
2019-04-04T13:32:12.816Z,33.33
2019-04-04T13:34:59.047Z,34.00
2019-04-04T13:37:27.892Z,39.60
2019-04-04T13:40:05.450Z,32.83
2019-04-04T13:42:43.052Z,30.53
2019-04-04T13:45:20.563Z,35.57
2019-04-04T13:47:58.141Z,37.27
2019-04-04T13:50:35.677Z,35.67
2019-04-04T13:53:13.293Z,37.17
2019-04-04T13:55:50.875Z,30.43
2019-04-04T13:58:28.444Z,29.40
2019-04-04T14:01:05.976Z,32.87
2019-04-04T14:03:43.538Z,33.70
2019-04-04T14:06:21.091Z,33.83
2019-04-04T14:08:58.672Z,36.57
2019-04-04T14:11:36.243Z,43.03
2019-04-04T14:14:13.810Z,35.07
2019-04-04T14:16:51.354Z,34.93
2019-04-04T14:19:31.447Z,37.17
2019-04-04T14:22:06.465Z,41.17
2019-04-04T14:24:44.040Z,38.97
2019-04-04T14:27:21.579Z,36.43
2019-04-04T14:29:59.168Z,41.73
2019-04-04T14:32:36.714Z,41.90
2019-04-04T14:35:14.222Z,36.53
2019-04-04T14:37:54.501Z,39.70
2019-04-04T14:40:29.323Z,44.37
2019-04-04T14:43:06.865Z,44.50
2019-04-04T14:45:44.374Z,42.53
2019-04-04T14:48:21.908Z,41.63
2019-04-04T14:50:59.437Z,37.20
2019-04-04T14:53:36.984Z,40.50
2019-04-04T14:56:14.524Z,46.90
2019-04-04T14:58:52.073Z,43.27
2019-04-04T15:01:30.000Z,47.23
2019-04-04T15:04:08.007Z,46.73
2019-04-04T15:06:45.781Z,39.93
2019-04-04T15:09:23.672Z,37.20
2019-04-04T15:12:01.563Z,39.57
2019-04-04T15:14:39.713Z,38.73
2019-04-04T15:17:27.960Z,43.30
2019-04-04T15:20:06.198Z,41.53
2019-04-04T15:22:44.784Z,44.37
2019-04-04T15:25:22.778Z,38.50
2019-04-04T15:28:00.974Z,42.83
2019-04-04T15:30:39.210Z,38.93
2019-04-04T15:33:17.635Z,41.50
2019-04-04T15:35:56.465Z,35.80
2019-04-04T15:38:34.861Z,39.10
2019-04-04T15:41:12.959Z,41.67
2019-04-04T15:43:51.145Z,39.90
2019-04-04T15:46:34.212Z,42.03
2019-04-04T15:49:11.820Z,42.50
2019-04-04T15:51:50.622Z,42.30
2019-04-04T15:54:28.654Z,42.17
2019-04-04T15:57:06.336Z,36.87
2019-04-04T15:59:44.103Z,41.10
2019-04-04T16:02:21.835Z,38.67
2019-04-04T16:04:59.623Z,40.13
2019-04-04T16:07:37.382Z,40.57
2019-04-04T16:10:15.572Z,43.20
2019-04-04T16:12:53.371Z,42.13
2019-04-04T16:15:31.201Z,41.73
2019-04-04T16:18:08.989Z,44.33
2019-04-04T16:20:46.810Z,41.37
2019-04-04T16:23:24.610Z,44.23
2019-04-04T16:26:02.747Z,43.30
2019-04-04T16:28:40.526Z,45.70
2019-04-04T16:31:18.328Z,48.50
2019-04-04T16:33:56.029Z,40.93
2019-04-04T16:36:33.761Z,44.87
2019-04-04T16:39:13.121Z,46.17
2019-04-04T16:42:01.678Z,47.10
2019-04-04T16:44:29.011Z,53.47
2019-04-04T16:47:06.519Z,49.63
2019-04-04T16:49:44.076Z,51.73
2019-04-04T16:52:21.612Z,54.33
2019-04-04T16:54:59.209Z,54.23
2019-04-04T16:57:36.797Z,55.70
2019-04-04T17:00:14.340Z,51.97
2019-04-04T17:02:51.871Z,58.70
2019-04-04T17:05:29.502Z,52.83
2019-04-04T17:08:07.687Z,51.10
2019-04-04T17:10:45.605Z,55.93
2019-04-04T17:13:23.523Z,53.43
2019-04-04T17:16:01.590Z,55.23
2019-04-04T17:18:39.926Z,53.37
2019-04-04T17:21:17.968Z,61.00
2019-04-04T17:23:56.039Z,58.63
2019-04-04T17:26:34.412Z,60.67
2019-04-04T17:29:12.332Z,56.97
2019-04-04T17:31:50.265Z,67.17
2019-04-04T17:34:28.444Z,64.70
2019-04-04T17:37:06.535Z,60.80
2019-04-04T17:39:44.244Z,62.57
2019-04-04T17:42:30.233Z,68.80
2019-04-04T17:45:02.593Z,68.10
2019-04-04T17:47:39.894Z,64.40
2019-04-04T17:50:19.427Z,68.30
2019-04-04T17:52:56.178Z,60.00
2019-04-04T17:55:34.731Z,61.73
2019-04-04T17:58:12.827Z,69.00
2019-04-04T18:00:50.775Z,63.80
2019-04-04T18:03:28.781Z,65.07
2019-04-04T18:06:06.988Z,61.30
2019-04-04T18:08:45.066Z,67.60
2019-04-04T18:11:23.376Z,61.57
2019-04-04T18:14:01.553Z,64.83
2019-04-04T18:16:39.355Z,62.40
2019-04-04T18:19:16.932Z,64.80
2019-04-04T18:21:55.390Z,65.73
2019-04-04T18:24:33.800Z,63.80
2019-04-04T18:27:11.868Z,66.20
2019-04-04T18:29:49.932Z,67.97
2019-04-04T18:32:28.402Z,65.00
2019-04-04T18:35:09.604Z,65.97
2019-04-04T18:37:48.192Z,63.57
2019-04-04T18:40:25.249Z,66.60
2019-04-04T18:43:02.765Z,66.07
2019-04-04T18:45:40.342Z,69.87
2019-04-04T18:48:17.852Z,65.87
2019-04-04T18:50:55.410Z,66.07
2019-04-04T18:53:32.964Z,64.70
2019-04-04T18:56:10.557Z,63.50
2019-04-04T18:58:48.241Z,65.67
2019-04-04T19:01:25.886Z,61.37
2019-04-04T19:04:03.415Z,65.10
2019-04-04T19:06:40.969Z,64.83
2019-04-04T19:09:20.459Z,66.53
2019-04-04T19:11:57.955Z,68.93
2019-04-04T19:14:35.602Z,58.57
2019-04-04T19:17:13.267Z,62.30
2019-04-04T19:19:50.850Z,60.73
2019-04-04T19:22:28.399Z,62.30
2019-04-04T19:25:05.979Z,62.37
2019-04-04T19:27:43.503Z,66.30
2019-04-04T19:30:21.059Z,64.60
2019-04-04T19:32:58.588Z,64.53
2019-04-04T19:35:36.135Z,62.87
2019-04-04T19:38:13.719Z,73.33
2019-04-04T19:40:51.265Z,61.57
2019-04-04T19:43:28.762Z,66.03
2019-04-04T19:46:06.297Z,70.57
2019-04-04T19:48:43.856Z,64.57
2019-04-04T19:51:21.377Z,64.93
2019-04-04T19:53:58.878Z,70.90
2019-04-04T19:56:36.448Z,64.40
2019-04-04T19:59:13.955Z,68.07
2019-04-04T20:01:54.886Z,72.07
2019-04-04T20:04:32.399Z,72.73
2019-04-04T20:07:09.927Z,71.53
2019-04-04T20:09:47.445Z,72.47
2019-04-04T20:12:24.974Z,74.00
2019-04-04T20:15:02.526Z,71.67
2019-04-04T20:17:40.031Z,73.53
2019-04-04T20:20:17.555Z,77.20
2019-04-04T20:22:55.108Z,76.27
2019-04-04T20:25:33.936Z,75.97
2019-04-04T20:28:11.361Z,76.13
2019-04-04T20:30:48.937Z,79.13
2019-04-04T20:33:26.437Z,77.17
2019-04-04T20:36:03.952Z,81.83
2019-04-04T20:38:41.540Z,77.40
2019-04-04T20:41:19.002Z,75.77
2019-04-04T20:43:56.519Z,88.30
2019-04-04T20:46:34.060Z,81.43
2019-04-04T20:49:11.563Z,72.50
2019-04-04T20:51:49.101Z,79.93
2019-04-04T20:54:26.998Z,87.83
2019-04-04T20:57:04.541Z,86.07
2019-04-04T20:59:42.057Z,88.03
2019-04-04T21:02:19.592Z,80.20
2019-04-04T21:04:57.113Z,77.10
2019-04-04T21:07:34.685Z,83.13
2019-04-04T21:10:12.276Z,81.60
2019-04-04T21:12:49.748Z,86.37
2019-04-04T21:15:27.246Z,84.73
2019-04-04T21:18:04.768Z,81.93
2019-04-04T21:20:42.269Z,88.17
2019-04-04T21:23:19.794Z,91.23
2019-04-04T21:25:57.331Z,88.97
2019-04-04T21:28:34.840Z,89.17
2019-04-04T21:31:12.374Z,98.90
2019-04-04T21:33:49.871Z,96.50
2019-04-04T21:36:27.418Z,99.13
2019-04-04T21:39:05.543Z,99.50
2019-04-04T21:41:43.055Z,96.20
2019-04-04T21:44:20.557Z,89.40
2019-04-04T21:46:58.119Z,100.70
2019-04-04T21:49:35.637Z,94.53
2019-04-04T21:52:13.176Z,96.60
2019-04-04T21:54:50.700Z,95.27
2019-04-04T21:57:28.289Z,95.67
2019-04-04T22:00:05.880Z,102.10
2019-04-04T22:02:43.416Z,95.70
2019-04-04T22:05:20.950Z,95.67
2019-04-04T22:07:58.477Z,102.27
2019-04-04T22:10:35.970Z,99.80
2019-04-04T22:13:13.493Z,102.50
2019-04-04T22:15:51.004Z,107.37
2019-04-04T22:18:28.545Z,114.13
2019-04-04T22:21:06.050Z,96.77
2019-04-04T22:23:43.590Z,116.00
2019-04-04T22:26:21.132Z,110.90
2019-04-04T22:28:58.633Z,111.17
2019-04-04T22:31:36.159Z,110.03
2019-04-04T22:34:13.685Z,116.60
2019-04-04T22:36:51.191Z,117.10
2019-04-04T22:39:28.701Z,112.87
2019-04-04T22:42:06.214Z,119.40
2019-04-04T22:44:43.716Z,112.43
2019-04-04T22:47:21.245Z,110.23
2019-04-04T22:49:58.760Z,112.70
2019-04-04T22:52:36.301Z,114.63
2019-04-04T22:55:13.827Z,111.63
2019-04-04T22:57:51.378Z,115.73
2019-04-04T23:00:28.899Z,109.00
2019-04-04T23:03:07.137Z,105.57
2019-04-04T23:05:44.668Z,108.03
2019-04-04T23:08:22.190Z,100.63
2019-04-04T23:10:59.684Z,102.67
2019-04-04T23:13:37.207Z,102.13
2019-04-04T23:16:14.827Z,107.67
2019-04-04T23:18:52.342Z,100.43
2019-04-04T23:21:29.852Z,101.07
2019-04-04T23:24:07.385Z,102.43
2019-04-04T23:26:44.877Z,100.73
2019-04-04T23:29:22.416Z,101.10
2019-04-04T23:31:59.937Z,99.20
2019-04-04T23:34:37.433Z,101.53
2019-04-04T23:37:14.960Z,105.73
2019-04-04T23:39:52.480Z,99.53
2019-04-04T23:42:30.016Z,100.07
2019-04-04T23:45:07.901Z,96.10
2019-04-04T23:47:45.460Z,100.40
2019-04-04T23:50:22.966Z,105.37
2019-04-04T23:53:00.492Z,103.20
2019-04-04T23:55:37.999Z,102.30
2019-04-04T23:58:15.562Z,97.73
